createdAt,value
2022-11-29T00:01:27.308Z,10.53
2022-11-29T00:03:55.843Z,11.17
2022-11-29T00:06:27.293Z,9.30
2022-11-29T00:08:56.191Z,12.70
2022-11-29T00:11:43.592Z,12.47
2022-11-29T00:14:13.107Z,10.57
2022-11-29T00:16:43.414Z,10.20
2022-11-29T00:19:12.042Z,11.87
2022-11-29T00:21:40.943Z,13.60
2022-11-29T00:24:10.221Z,12.97
2022-11-29T00:26:38.640Z,12.30
2022-11-29T00:29:07.222Z,9.73
2022-11-29T00:31:35.576Z,14.23
2022-11-29T00:34:07.000Z,11.87
2022-11-29T00:36:35.562Z,15.77
2022-11-29T00:39:04.314Z,14.57
2022-11-29T00:41:32.663Z,12.23
2022-11-29T00:44:01.015Z,11.27
2022-11-29T00:46:29.127Z,10.50
2022-11-29T00:48:57.454Z,13.57
2022-11-29T00:51:27.038Z,11.37
2022-11-29T00:53:55.410Z,15.30
2022-11-29T00:56:23.834Z,10.40
2022-11-29T00:58:52.273Z,11.87
2022-11-29T01:01:20.876Z,13.47
2022-11-29T01:03:49.403Z,9.93
2022-11-29T01:06:19.191Z,11.67
2022-11-29T01:08:49.580Z,14.90
2022-11-29T01:11:20.669Z,13.47
2022-11-29T01:13:49.103Z,10.80
2022-11-29T01:16:17.896Z,15.07
2022-11-29T01:18:46.450Z,12.17
2022-11-29T01:21:16.259Z,11.43
2022-11-29T01:23:45.874Z,12.67
2022-11-29T01:26:17.139Z,13.63
2022-11-29T01:28:47.432Z,10.20
2022-11-29T01:31:16.935Z,18.17
2022-11-29T01:33:45.128Z,14.47
2022-11-29T01:36:14.702Z,12.30
2022-11-29T01:38:43.538Z,13.70
2022-11-29T01:41:16.705Z,12.03
2022-11-29T01:44:01.243Z,14.10
2022-11-29T01:46:30.683Z,12.87
2022-11-29T01:49:03.272Z,14.57
2022-11-29T01:51:34.746Z,17.33
2022-11-29T01:54:03.288Z,14.70
2022-11-29T01:56:35.703Z,17.07
2022-11-29T01:59:07.337Z,12.97
2022-11-29T02:01:35.844Z,13.77
2022-11-29T02:04:04.512Z,15.13
2022-11-29T02:06:33.281Z,14.20
2022-11-29T02:09:01.613Z,16.47
2022-11-29T02:11:56.379Z,14.10
2022-11-29T02:14:40.801Z,10.33
2022-11-29T02:17:17.367Z,13.40
2022-11-29T02:20:01.119Z,12.63
2022-11-29T02:22:34.686Z,12.50
2022-11-29T02:25:16.508Z,10.77
2022-11-29T02:28:18.308Z,13.87
2022-11-29T02:31:14.539Z,11.73
2022-11-29T02:34:00.085Z,11.17
2022-11-29T02:37:01.712Z,11.20
2022-11-29T02:40:06.623Z,11.47
2022-11-29T02:43:05.810Z,10.30
2022-11-29T02:45:49.926Z,14.07
2022-11-29T02:48:37.654Z,10.80
2022-11-29T02:51:13.191Z,15.23
2022-11-29T02:53:51.038Z,13.80
2022-11-29T02:56:29.636Z,13.37
2022-11-29T02:59:04.765Z,15.77
2022-11-29T03:01:38.636Z,14.23
2022-11-29T03:04:16.526Z,15.93
2022-11-29T03:06:54.857Z,14.43
2022-11-29T03:09:27.641Z,19.17
2022-11-29T03:12:03.187Z,13.80
2022-11-29T03:14:45.560Z,14.37
2022-11-29T03:17:21.493Z,20.30
2022-11-29T03:20:04.759Z,17.67
2022-11-29T03:22:42.943Z,15.70
2022-11-29T03:25:14.767Z,18.40
2022-11-29T03:27:48.669Z,18.90
2022-11-29T03:30:19.859Z,22.77
2022-11-29T03:32:57.705Z,18.73
2022-11-29T03:35:34.673Z,16.87
2022-11-29T03:38:14.442Z,16.40
2022-11-29T03:40:50.448Z,20.77
2022-11-29T03:43:23.506Z,22.47
2022-11-29T03:45:57.208Z,19.33
2022-11-29T03:48:31.299Z,20.57
2022-11-29T03:51:05.319Z,26.20
2022-11-29T03:53:40.182Z,23.57
2022-11-29T03:56:27.436Z,18.97
2022-11-29T03:59:05.245Z,17.73
2022-11-29T04:02:12.798Z,24.63
2022-11-29T04:05:22.260Z,19.90
2022-11-29T04:08:10.290Z,17.77
2022-11-29T04:10:58.359Z,21.00
2022-11-29T04:13:47.663Z,21.53
2022-11-29T04:17:05.160Z,19.70
2022-11-29T04:20:16.030Z,20.93
2022-11-29T04:23:19.175Z,31.10
2022-11-29T04:26:04.249Z,20.00
2022-11-29T04:29:11.522Z,23.20
2022-11-29T04:31:50.076Z,23.30
2022-11-29T04:34:53.891Z,25.93
2022-11-29T04:37:45.654Z,22.07
2022-11-29T04:40:32.962Z,17.80
2022-11-29T04:43:17.433Z,21.20
2022-11-29T04:46:28.440Z,24.23
2022-11-29T04:49:16.357Z,24.27
2022-11-29T04:52:02.593Z,24.27
2022-11-29T04:54:36.807Z,22.23
2022-11-29T04:57:12.921Z,22.90
2022-11-29T04:59:45.755Z,18.40
2022-11-29T05:02:27.240Z,19.03
2022-11-29T05:05:05.102Z,17.00
2022-11-29T05:07:40.783Z,17.00
2022-11-29T05:10:25.384Z,19.83
2022-11-29T05:13:01.023Z,19.83
2022-11-29T05:16:03.711Z,17.37
2022-11-29T05:18:55.495Z,25.23
2022-11-29T05:21:38.147Z,20.67
2022-11-29T05:24:18.582Z,18.00
2022-11-29T05:26:54.977Z,20.57
2022-11-29T05:29:31.833Z,26.03
2022-11-29T05:32:25.317Z,22.23
2022-11-29T05:35:30.369Z,20.57
2022-11-29T05:38:05.600Z,18.60
2022-11-29T05:40:51.292Z,23.23
2022-11-29T05:43:38.971Z,22.83
2022-11-29T05:46:13.144Z,21.50
2022-11-29T05:48:52.096Z,27.10
2022-11-29T05:51:24.231Z,23.60
2022-11-29T05:54:00.828Z,20.67
2022-11-29T05:56:41.403Z,29.70
2022-11-29T05:59:10.568Z,20.37
2022-11-29T06:01:47.505Z,20.57
2022-11-29T06:04:22.812Z,20.70
2022-11-29T06:06:59.087Z,20.13
2022-11-29T06:09:30.747Z,29.27
2022-11-29T06:12:02.772Z,22.73
2022-11-29T06:14:55.396Z,15.93
2022-11-29T06:17:52.886Z,22.83
2022-11-29T06:20:52.832Z,15.57
2022-11-29T06:23:44.866Z,25.37
2022-11-29T06:26:29.177Z,25.67
2022-11-29T06:29:17.735Z,16.63
2022-11-29T06:31:49.321Z,19.33
2022-11-29T06:34:30.986Z,21.47
2022-11-29T06:37:08.405Z,22.70
2022-11-29T06:39:36.993Z,17.67
2022-11-29T06:42:05.301Z,17.87
2022-11-29T06:44:33.865Z,19.60
2022-11-29T06:47:08.642Z,13.73
2022-11-29T06:49:40.949Z,19.87
2022-11-29T06:52:22.047Z,16.07
2022-11-29T06:55:04.694Z,15.03
2022-11-29T06:57:45.765Z,17.77
2022-11-29T07:00:18.124Z,19.80
2022-11-29T07:02:58.383Z,17.30
2022-11-29T07:05:29.691Z,20.33
2022-11-29T07:08:03.449Z,15.47
2022-11-29T07:10:34.780Z,24.47
2022-11-29T07:13:03.496Z,20.47
2022-11-29T07:15:32.598Z,26.00
2022-11-29T07:18:19.758Z,19.83
2022-11-29T07:20:59.019Z,20.73
2022-11-29T07:23:37.329Z,15.33
2022-11-29T07:26:18.045Z,25.03
2022-11-29T07:28:57.447Z,21.33
2022-11-29T07:31:37.447Z,29.27
2022-11-29T07:34:13.181Z,22.80
2022-11-29T07:36:50.791Z,27.40
2022-11-29T07:39:32.834Z,23.07
2022-11-29T07:42:07.566Z,25.70
2022-11-29T07:44:40.977Z,31.53
2022-11-29T07:47:10.079Z,26.23
2022-11-29T07:49:38.351Z,25.50
2022-11-29T07:52:06.771Z,23.57
2022-11-29T07:54:36.192Z,29.97
2022-11-29T07:57:04.695Z,23.40
2022-11-29T07:59:32.993Z,30.30
2022-11-29T08:02:01.363Z,26.37
2022-11-29T08:04:29.901Z,23.70
2022-11-29T08:07:00.031Z,22.00
2022-11-29T08:09:28.319Z,19.07
2022-11-29T08:11:57.700Z,24.80
2022-11-29T08:14:25.869Z,37.47
2022-11-29T08:16:54.219Z,22.67
2022-11-29T08:19:22.523Z,26.97
2022-11-29T08:21:51.551Z,35.27
2022-11-29T08:24:19.608Z,27.77
2022-11-29T08:26:47.935Z,21.37
2022-11-29T08:29:17.880Z,25.10
2022-11-29T08:31:46.462Z,30.50
2022-11-29T08:34:14.850Z,38.47
2022-11-29T08:36:43.191Z,35.93
2022-11-29T08:39:11.476Z,33.10
2022-11-29T08:41:39.812Z,33.47
2022-11-29T08:44:08.210Z,32.50
2022-11-29T08:46:54.945Z,26.77
2022-11-29T08:49:23.252Z,36.40
2022-11-29T08:51:53.301Z,29.43
2022-11-29T08:54:20.574Z,26.77
2022-11-29T08:59:37.247Z,23.03
2022-11-29T09:02:06.692Z,29.83
2022-11-29T09:04:35.196Z,21.73
2022-11-29T09:07:03.758Z,28.70
2022-11-29T09:09:32.163Z,31.57
2022-11-29T09:12:00.479Z,63.97
2022-11-29T09:14:28.945Z,50.13
2022-11-29T09:16:57.300Z,47.80
2022-11-29T09:19:26.805Z,36.47
2022-11-29T09:21:55.151Z,42.47
2022-11-29T09:24:23.458Z,31.43
2022-11-29T09:26:51.855Z,38.60
2022-11-29T09:29:20.221Z,26.67
2022-11-29T09:31:48.641Z,28.50
2022-11-29T09:34:18.522Z,44.63
2022-11-29T09:36:48.230Z,22.03
2022-11-29T09:39:16.639Z,50.30
2022-11-29T09:42:07.452Z,42.37
2022-11-29T09:44:49.509Z,47.80
2022-11-29T09:47:32.879Z,49.70
2022-11-29T09:50:21.189Z,38.47
2022-11-29T09:52:59.109Z,44.13
2022-11-29T09:55:47.227Z,41.67
2022-11-29T09:58:20.762Z,55.10
2022-11-29T10:00:51.798Z,49.77
2022-11-29T10:03:26.361Z,40.50
2022-11-29T10:05:59.649Z,35.40
2022-11-29T10:08:34.787Z,43.50
2022-11-29T10:11:22.273Z,45.50
2022-11-29T10:13:54.681Z,46.87
2022-11-29T10:16:29.572Z,36.20
2022-11-29T10:19:02.916Z,37.27
2022-11-29T10:21:36.394Z,42.60
2022-11-29T10:24:11.798Z,39.70
2022-11-29T10:26:40.264Z,47.70
2022-11-29T10:29:08.644Z,47.77
2022-11-29T10:31:43.245Z,54.00
2022-11-29T10:34:15.421Z,43.27
2022-11-29T10:36:46.741Z,29.40
2022-11-29T10:39:22.024Z,40.63
2022-11-29T10:41:53.359Z,41.63
2022-11-29T10:44:21.882Z,30.90
2022-11-29T10:46:50.371Z,29.37
2022-11-29T10:49:20.217Z,28.30
2022-11-29T10:51:48.748Z,31.33
2022-11-29T10:54:34.378Z,31.33
2022-11-29T10:57:04.231Z,27.23
2022-11-29T10:59:33.186Z,27.87
2022-11-29T11:02:01.886Z,27.17
2022-11-29T11:04:33.020Z,30.97
2022-11-29T11:07:03.625Z,21.70
2022-11-29T11:09:36.703Z,19.53
2022-11-29T11:12:08.608Z,23.40
2022-11-29T11:14:38.803Z,18.50
2022-11-29T11:17:22.309Z,28.77
2022-11-29T11:19:57.772Z,27.07
2022-11-29T11:22:27.126Z,18.93
2022-11-29T11:25:03.097Z,25.47
2022-11-29T11:27:33.036Z,26.17
2022-11-29T11:30:01.778Z,26.37
2022-11-29T11:32:29.917Z,15.60
2022-11-29T11:34:59.012Z,25.57
2022-11-29T11:37:29.065Z,15.77
2022-11-29T11:40:00.365Z,22.87
2022-11-29T11:42:40.494Z,26.07
2022-11-29T11:45:27.236Z,29.17
2022-11-29T11:47:57.641Z,32.50
2022-11-29T11:50:32.624Z,24.40
2022-11-29T11:53:03.970Z,27.30
2022-11-29T11:55:36.971Z,28.03
2022-11-29T11:58:10.530Z,29.10
2022-11-29T12:03:38.214Z,25.70
2022-11-29T12:06:31.206Z,27.00
2022-11-29T12:09:05.555Z,30.97
2022-11-29T12:11:42.231Z,19.10
2022-11-29T12:14:21.230Z,26.67
2022-11-29T12:16:51.354Z,31.80
2022-11-29T12:19:24.760Z,33.97
2022-11-29T12:21:57.356Z,34.53
2022-11-29T12:24:31.995Z,34.20
2022-11-29T12:27:06.392Z,39.20
2022-11-29T12:29:36.364Z,28.23
2022-11-29T12:32:20.115Z,32.73
2022-11-29T12:35:01.097Z,25.33
2022-11-29T12:37:36.979Z,29.50
2022-11-29T12:40:10.200Z,27.27
2022-11-29T12:42:50.365Z,34.07
2022-11-29T12:45:33.757Z,31.73
2022-11-29T12:48:10.790Z,28.07
2022-11-29T12:50:52.091Z,25.90
2022-11-29T12:53:31.460Z,36.77
2022-11-29T12:56:13.600Z,31.00
2022-11-29T12:58:47.136Z,33.70
2022-11-29T13:01:25.949Z,37.70
2022-11-29T13:04:01.781Z,31.83
2022-11-29T13:06:39.016Z,48.43
2022-11-29T13:09:38.819Z,41.23
2022-11-29T13:12:13.692Z,34.90
2022-11-29T13:14:50.711Z,40.43
2022-11-29T13:17:28.804Z,30.30
2022-11-29T13:19:59.699Z,37.57
2022-11-29T13:22:33.011Z,35.77
2022-11-29T13:25:04.482Z,36.27
2022-11-29T13:27:36.108Z,30.00
2022-11-29T13:30:07.183Z,41.73
2022-11-29T13:32:37.538Z,41.03
2022-11-29T13:35:17.615Z,46.97
2022-11-29T13:37:55.137Z,35.23
2022-11-29T13:40:30.450Z,42.27
2022-11-29T13:43:05.246Z,59.10
2022-11-29T13:45:41.255Z,54.53
2022-11-29T13:48:36.175Z,33.73
2022-11-29T13:51:33.271Z,52.60
2022-11-29T13:54:03.869Z,54.53
2022-11-29T13:56:43.251Z,57.83
2022-11-29T13:59:19.642Z,47.53
2022-11-29T14:01:52.712Z,37.27
2022-11-29T14:04:30.987Z,37.50
2022-11-29T14:07:19.681Z,39.97
2022-11-29T14:09:58.362Z,33.43
2022-11-29T14:12:39.680Z,37.80
2022-11-29T14:15:19.297Z,34.87
2022-11-29T14:17:51.846Z,41.37
2022-11-29T14:20:57.585Z,38.77
2022-11-29T14:23:46.735Z,31.17
2022-11-29T14:26:28.649Z,37.60
2022-11-29T14:28:57.571Z,36.43
2022-11-29T14:31:55.028Z,38.47
2022-11-29T14:34:49.571Z,35.47
2022-11-29T14:37:35.133Z,23.60
2022-11-29T14:40:14.910Z,33.43
2022-11-29T14:42:48.881Z,28.53
2022-11-29T14:45:28.622Z,30.43
2022-11-29T14:47:57.393Z,27.00
2022-11-29T14:50:35.597Z,33.47
2022-11-29T14:53:04.882Z,29.17
2022-11-29T14:55:36.511Z,31.87
2022-11-29T14:58:21.997Z,28.00
2022-11-29T15:01:09.622Z,25.13
2022-11-29T15:03:44.067Z,26.73
2022-11-29T15:06:18.489Z,30.37
2022-11-29T15:08:55.589Z,31.30
2022-11-29T15:11:38.064Z,30.73
2022-11-29T15:14:08.191Z,28.23
2022-11-29T15:16:51.695Z,23.67
2022-11-29T15:19:48.805Z,22.17
2022-11-29T15:22:20.913Z,17.40
2022-11-29T15:24:54.044Z,23.63
2022-11-29T15:27:23.058Z,28.33
2022-11-29T15:29:52.772Z,42.17
2022-11-29T15:32:25.828Z,44.90
2022-11-29T15:34:55.940Z,56.53
2022-11-29T15:37:39.980Z,53.83
2022-11-29T15:40:13.642Z,65.80
2022-11-29T15:42:44.848Z,52.27
2022-11-29T15:45:26.287Z,55.13
2022-11-29T15:47:55.176Z,75.17
2022-11-29T15:50:27.440Z,57.60
2022-11-29T15:53:04.713Z,73.47
2022-11-29T15:55:35.511Z,61.00
2022-11-29T15:58:08.785Z,59.73
2022-11-29T16:00:37.805Z,48.33
2022-11-29T16:03:08.670Z,62.33
2022-11-29T16:05:38.784Z,45.87
2022-11-29T16:08:14.987Z,58.80
2022-11-29T16:10:47.392Z,55.87
2022-11-29T16:13:32.801Z,73.17
2022-11-29T16:16:08.073Z,65.17
2022-11-29T16:18:37.268Z,59.23
2022-11-29T16:21:06.830Z,48.13
2022-11-29T16:23:38.080Z,70.93
2022-11-29T16:26:14.120Z,58.83
2022-11-29T16:28:44.278Z,50.63
2022-11-29T16:31:18.149Z,50.30
2022-11-29T16:33:47.496Z,51.17
2022-11-29T16:36:17.677Z,53.47
2022-11-29T16:38:49.777Z,48.63
2022-11-29T16:41:25.572Z,45.97
2022-11-29T16:43:57.500Z,40.83
2022-11-29T16:46:43.389Z,45.57
2022-11-29T16:49:30.435Z,56.33
2022-11-29T16:51:58.852Z,40.87
2022-11-29T16:54:32.329Z,48.00
2022-11-29T16:57:00.651Z,47.43
2022-11-29T16:59:29.232Z,73.80
2022-11-29T17:01:57.986Z,50.03
2022-11-29T17:04:26.220Z,65.63
2022-11-29T17:06:55.910Z,44.27
2022-11-29T17:09:28.222Z,45.00
2022-11-29T17:11:56.879Z,43.23
2022-11-29T17:14:24.845Z,41.23
2022-11-29T17:16:53.435Z,59.10
2022-11-29T17:19:23.895Z,56.90
2022-11-29T17:21:52.766Z,49.13
2022-11-29T17:24:22.885Z,45.87
2022-11-29T17:26:52.705Z,55.50
2022-11-29T17:29:20.834Z,61.13
2022-11-29T17:31:50.482Z,48.07
2022-11-29T17:34:19.135Z,64.37
2022-11-29T17:36:47.469Z,61.93
2022-11-29T17:39:19.962Z,55.93
2022-11-29T17:41:48.357Z,58.67
2022-11-29T17:44:18.088Z,55.20
2022-11-29T17:46:46.537Z,79.30
2022-11-29T17:49:14.856Z,56.47
2022-11-29T17:51:52.397Z,52.77
2022-11-29T17:54:21.989Z,60.27
2022-11-29T17:56:50.405Z,50.00
2022-11-29T17:59:20.503Z,43.80
2022-11-29T18:01:48.954Z,51.00
2022-11-29T18:04:17.409Z,41.97
2022-11-29T18:06:50.039Z,40.40
2022-11-29T18:09:19.723Z,45.50
2022-11-29T18:11:50.327Z,36.73
2022-11-29T18:14:22.852Z,40.53
2022-11-29T18:16:51.262Z,48.27
2022-11-29T18:19:21.312Z,55.40
2022-11-29T18:21:50.022Z,53.13
2022-11-29T18:24:18.392Z,55.27
2022-11-29T18:26:46.749Z,47.67
2022-11-29T18:29:15.244Z,49.77
2022-11-29T18:31:46.499Z,46.90
2022-11-29T18:34:15.556Z,47.03
2022-11-29T18:36:45.639Z,43.30
2022-11-29T18:39:15.770Z,54.87
2022-11-29T18:41:45.721Z,42.13
2022-11-29T18:44:15.683Z,43.67
2022-11-29T18:46:46.402Z,48.50
2022-11-29T18:49:15.767Z,54.93
2022-11-29T18:51:46.056Z,39.23
2022-11-29T18:54:15.435Z,49.00
2022-11-29T18:56:44.395Z,49.13
2022-11-29T18:59:14.771Z,44.43
2022-11-29T19:01:45.731Z,43.43
2022-11-29T19:04:15.159Z,46.73
2022-11-29T19:06:43.619Z,45.63
2022-11-29T19:09:15.259Z,58.60
2022-11-29T19:11:43.745Z,51.93
2022-11-29T19:14:13.192Z,45.40
2022-11-29T19:16:43.268Z,55.43
2022-11-29T19:19:13.184Z,54.70
2022-11-29T19:21:41.950Z,47.20
2022-11-29T19:24:14.964Z,47.87
2022-11-29T19:26:44.870Z,45.63
2022-11-29T19:29:13.414Z,47.07
2022-11-29T19:31:42.423Z,48.10
2022-11-29T19:34:10.836Z,67.13
2022-11-29T19:36:43.143Z,47.23
2022-11-29T19:39:13.138Z,54.77
2022-11-29T19:41:43.551Z,48.57
2022-11-29T19:44:12.213Z,48.37
2022-11-29T19:46:42.000Z,51.73
2022-11-29T19:49:10.693Z,46.93
2022-11-29T19:51:40.129Z,51.13
2022-11-29T19:54:09.640Z,53.47
2022-11-29T19:56:38.826Z,49.93
2022-11-29T19:59:07.811Z,41.90
2022-11-29T20:01:43.809Z,52.53
2022-11-29T20:04:12.767Z,48.20
2022-11-29T20:06:44.293Z,60.13
2022-11-29T20:09:13.696Z,51.77
2022-11-29T20:11:42.028Z,41.00
2022-11-29T20:14:12.757Z,58.67
2022-11-29T20:16:41.065Z,60.90
2022-11-29T20:19:11.266Z,45.73
2022-11-29T20:21:44.681Z,61.60
2022-11-29T20:24:14.292Z,51.00
2022-11-29T20:26:43.672Z,50.30
2022-11-29T20:29:13.094Z,47.43
2022-11-29T20:31:49.069Z,50.60
2022-11-29T20:34:18.324Z,44.30
2022-11-29T20:37:07.501Z,56.57
2022-11-29T20:39:40.083Z,60.30
2022-11-29T20:42:23.324Z,58.57
2022-11-29T20:44:54.091Z,47.60
2022-11-29T20:47:23.250Z,59.90
2022-11-29T20:49:52.130Z,52.40
2022-11-29T20:52:37.428Z,47.20
2022-11-29T20:55:05.933Z,48.43
2022-11-29T20:57:34.324Z,60.57
2022-11-29T21:00:03.680Z,53.07
2022-11-29T21:02:32.084Z,39.73
2022-11-29T21:05:00.514Z,48.17
2022-11-29T21:07:30.048Z,52.30
2022-11-29T21:10:01.315Z,54.93
2022-11-29T21:12:30.416Z,63.13
2022-11-29T21:14:59.105Z,50.93
2022-11-29T21:17:33.218Z,38.13
2022-11-29T21:20:02.560Z,52.90
2022-11-29T21:22:50.229Z,44.97
2022-11-29T21:25:23.890Z,51.10
2022-11-29T21:27:52.368Z,46.67
2022-11-29T21:30:22.969Z,45.67
2022-11-29T21:32:51.561Z,39.83
2022-11-29T21:35:20.033Z,42.47
2022-11-29T21:37:52.510Z,54.40
2022-11-29T21:40:20.925Z,43.47
2022-11-29T21:42:49.271Z,60.63
2022-11-29T21:45:17.600Z,44.73
2022-11-29T21:47:46.061Z,51.43
2022-11-29T21:50:14.815Z,41.17
2022-11-29T21:52:44.325Z,48.53
2022-11-29T21:55:13.792Z,41.90
2022-11-29T21:57:42.166Z,44.63
2022-11-29T22:00:11.160Z,41.80
2022-11-29T22:02:39.584Z,48.97
2022-11-29T22:05:09.619Z,53.60
2022-11-29T22:07:38.079Z,41.90
2022-11-29T22:10:11.809Z,48.67
2022-11-29T22:12:51.211Z,52.67
2022-11-29T22:15:24.590Z,35.90
2022-11-29T22:17:53.372Z,43.10
2022-11-29T22:20:21.756Z,49.27
2022-11-29T22:22:51.105Z,46.90
2022-11-29T22:25:21.795Z,50.73
2022-11-29T22:27:51.764Z,41.93
2022-11-29T22:30:20.154Z,38.07
2022-11-29T22:32:48.508Z,39.47
2022-11-29T22:35:16.673Z,37.83
2022-11-29T22:37:45.119Z,40.03
2022-11-29T22:40:13.767Z,40.47
2022-11-29T22:42:43.239Z,42.67
2022-11-29T22:45:12.934Z,41.77
2022-11-29T22:47:41.362Z,44.60
2022-11-29T22:50:10.710Z,34.57
2022-11-29T22:52:39.082Z,46.30
2022-11-29T22:55:07.804Z,40.20
2022-11-29T22:57:36.479Z,50.57
2022-11-29T23:00:05.137Z,42.43
2022-11-29T23:02:34.639Z,43.97
2022-11-29T23:05:03.162Z,49.33
2022-11-29T23:07:31.615Z,42.60
2022-11-29T23:09:59.927Z,42.03
2022-11-29T23:12:28.332Z,43.47
2022-11-29T23:14:57.066Z,40.63
2022-11-29T23:17:25.692Z,47.00
2022-11-29T23:19:55.086Z,42.50
2022-11-29T23:22:23.551Z,41.50
2022-11-29T23:24:51.891Z,43.07
2022-11-29T23:27:20.212Z,38.67
2022-11-29T23:29:48.734Z,39.90
2022-11-29T23:32:17.075Z,42.43
2022-11-29T23:34:45.714Z,36.60
2022-11-29T23:37:15.296Z,30.90
2022-11-29T23:39:43.655Z,39.37
2022-11-29T23:42:12.207Z,38.33
2022-11-29T23:44:40.566Z,46.40
2022-11-29T23:47:08.872Z,45.50
2022-11-29T23:49:39.849Z,49.73
2022-11-29T23:52:08.201Z,61.67
2022-11-29T23:54:37.596Z,42.57
2022-11-29T23:57:06.073Z,39.83
2022-11-29T23:59:34.404Z,48.37
